LTCK/MSR METAR and TAF weather

Enter ICAO airport designator
Station Type Date Time Source
LTCK METAR 2020/08/11 13:50 UTC NOAA

LTCK 111350Z 26006KT 220V290 9999 FEW040 32/04 Q1009


Station Type Date Time Source
LTCK Decoded METAR 2020/08/11 13:50 UTC NOAA

Mus Tur-Afb , Turkey (LTCK) 38-45N 041-40E
Aug 11, 2020 - 09:50 AM EDT / 2020.08.11 1350 UTC
Wind: from the W (260 degrees) at 7 MPH (6 KT) (direction variable):0
Visibility: greater than 7 mile(s):0
Sky conditions: mostly clear
Temperature: 89 F (32 C)
Dew Point: 39 F (4 C)
Relative Humidity: 17%
Pressure (altimeter): 29.80 in. Hg (1009 hPa)
ob: LTCK 111350Z 26006KT 220V290 9999 FEW040 32/04 Q1009
cycle: 14

Station Type Date Time Source
LTCK TAF UTC NOAA

Error!

Example: see airport list